Warrenton, VA (20186)

11:59 PM EDT on September 23, 2014 (GMT -0400)
Old Waterloo Road | Change Station
CLOSE
Current Station
Personal Weather Station
Location: Warrenton, VA
Elevation: 512 ft
Nearby Weather Stations

Elev 512 ft 38.70 °N, 77.90 °W | Updated 2 seconds ago

Clear
Clear
50.1 °F
Feels Like 50.1 °F
N
0.0
Wind Variable Wind from North
Gusts 0.0 mph

Today
High -- | Low -- °F
--% Chance of Precip.
Yesterday
High -- | Low -- °F
Precip. -- in
7:00 AM 7:06 PM
Waning Crescent, 0% visible
Pressure 30.38 in
Visibility 10.0 miles
Clouds Clear
Dew Point 49 °F
Humidity 95%
Rainfall 0.00 in
Snow Depth Not available.
UV 0 out of 12
Pollen 3.80 out of 12
Air Quality Not available.
Flu Activity Not available.
METAR KHWY 240335Z AUTO 00000KT 10SM CLR 10/10 A3038 RMK AO2 T01010101

More Conditions Fewer Conditions

Pressure 30.38 in
Visibility 10.0 miles
Clouds Clear
Dew Point 49 °F
Humidity 95%
Rainfall 0.00 in
Snow Depth Not available.
UV 0 out of 12
Pollen 3.80 out of 12
Air Quality Not available.
Flu Activity Not available.
METAR KHWY 240335Z AUTO 00000KT 10SM CLR 10/10 A3038 RMK AO2 T01010101

More Conditions Fewer Conditions

10-Day Weather Forecast

Almanac

Astronomy

Sep. 23, 2014 Rise Set
Actual Time 7:00 AM EDT 7:06 PM EDT
Civil Twilight 6:33 AM EDT 7:33 PM EDT
Nautical Twilight 6:02 AM EDT 8:04 PM EDT
Astronomical Twilight 5:30 AM EDT 8:35 PM EDT
Moon 6:22 AM EDT (9/23) 6:44 PM EDT (9/23)
Length of Visible Light 12h 59m
Length of Day
12h 06m
Tomorrow will be 2m 30s shorter.
Waning Crescent, 0% of the Moon is Illuminated
Today
Waning Crescent
Sep 24
New
Oct 1
First Quarter
Oct 8
Full
Oct 15
Last Quarter

Today's Extremes

State Highs State Lows

Community

WunderPhotos

Upload Photos

1,755,878 photos uploaded!

WunderBlogs® & News

Nearby

Snow Depth

Station Depth Elevation
No new snow has been reported.

Earthquake Activity

City Distance Mag. Time & Date
No recent earthquake activity has been reported nearby.
Minimum magnitude displayed is 2.5.

Coastal Water Temperatures

Place Temperature
No Stations Reporting

Nearby Weather Stations